Time;durP1;ratioP1;P1;durP2;ratioP2;P2;SDS_P1;SDS_P2;PMS_P1;PMS_P2;Temp;Humidity;BMP_temperature;BMP_pressure;BME280_temperature;BME280_humidity;BME280_pressure;Samples;Min_cycle;Max_cycle;Signal;HPM_P1;HPM_P2
2023/10/28 08:43:04;;;;;;;3.07;1.10;;;;;;;16.61;74.52;97531.47;5149838;27;20512;-89
2023/10/28 08:46:08;;;;;;;2.27;1.00;;;;;;;16.30;76.63;97506.38;5115066;27;38667;-87
2023/10/28 08:52:37;;;;;;;2.30;0.90;;;;;;;15.92;79.28;97535.31;5107669;27;42100;-87
2023/10/28 08:58:10;;;;;;;1.73;0.70;;;;;;;15.66;79.97;97551.41;5109838;27;41387;-88
2023/10/28 09:01:19;;;;;;;1.87;0.90;;;;;;;15.40;80.69;97508.72;5108047;27;41635;-86
2023/10/28 09:03:49;;;;;;;2.03;1.00;;;;;;;15.59;79.58;97538.84;5110810;27;41959;-87
2023/10/28 09:06:18;;;;;;;2.67;1.80;;;;;;;15.53;80.10;97531.44;5093686;27;42393;-88
2023/10/28 09:09:28;;;;;;;1.90;1.10;;;;;;;15.55;79.44;97553.50;5110488;27;40840;-86
2023/10/28 09:18:13;;;;;;;2.33;0.90;;;;;;;15.10;79.65;97527.84;5129717;27;41556;-88
2023/10/28 09:20:42;;;;;;;2.50;1.03;;;;;;;15.18;80.10;97553.75;5131995;27;38715;-88
2023/10/28 09:23:30;;;;;;;1.90;0.83;;;;;;;14.94;80.29;97530.41;5112467;27;41608;-89
2023/10/28 09:29:03;;;;;;;1.43;0.90;;;;;;;15.06;80.85;97563.84;5131102;27;43031;-89
2023/10/28 09:31:47;;;;;;;2.10;0.80;;;;;;;14.82;82.01;97550.31;5131749;27;40870;-89
2023/10/28 09:37:16;;;;;;;2.23;0.80;;;;;;;14.65;82.79;97560.81;5149949;27;40149;-87
2023/10/28 09:39:48;;;;;;;2.17;0.90;;;;;;;14.49;83.07;97523.38;5152175;27;42273;-88
2023/10/28 09:42:36;;;;;;;1.40;0.80;;;;;;;14.70;83.09;97563.03;5132947;27;40556;-88
2023/10/28 09:45:14;;;;;;;2.23;0.80;;;;;;;14.71;83.32;97560.19;5141596;27;42397;-88
2023/10/28 09:48:09;;;;;;;1.63;1.00;;;;;;;14.78;84.22;97554.28;5113483;27;43081;-88
2023/10/28 09:50:58;;;;;;;1.03;0.83;;;;;;;14.90;83.60;97572.53;5130352;27;42517;-88
2023/10/28 10:36:43;;;;;;;4.60;1.03;;;;;;;19.34;62.06;97568.22;5146235;27;44556;-88
2023/10/28 10:39:28;;;;;;;1.27;0.70;;;;;;;20.12;60.53;97594.59;5137781;27;41258;-88
2023/10/28 10:41:59;;;;;;;3.83;1.23;;;;;;;20.32;57.90;97610.97;5135723;27;40140;-88
2023/10/28 10:44:47;;;;;;;2.73;0.70;;;;;;;20.22;58.54;97584.38;5136083;27;41048;-89
2023/10/28 10:55:30;;;;;;;1.57;0.70;;;;;;;19.27;58.72;97592.28;5114129;27;40525;-86
2023/10/28 10:58:00;;;;;;;3.00;0.70;;;;;;;18.90;59.32;97579.66;5154920;27;40836;-88
2023/10/28 11:00:50;;;;;;;1.63;0.70;;;;;;;18.62;58.87;97557.06;5139633;27;43664;-89
2023/10/28 11:03:21;;;;;;;3.20;1.03;;;;;;;18.86;59.12;97594.44;5150366;27;43755;-87
2023/10/28 11:05:51;;;;;;;1.50;0.90;;;;;;;18.81;58.23;97561.94;5132617;27;40647;-88
2023/10/28 11:08:38;;;;;;;1.13;0.80;;;;;;;19.04;59.26;97591.44;5102362;27;42663;-89
2023/10/28 11:11:06;;;;;;;1.77;0.83;;;;;;;18.72;59.02;97563.03;5119290;27;43728;-89
2023/10/28 11:13:35;;;;;;;1.03;0.67;;;;;;;18.79;58.89;97577.38;5120166;27;43028;-87
2023/10/28 11:36:20;;;;;;;1.93;0.93;;;;;;;18.18;56.59;97586.25;5138278;27;41580;-88
2023/10/28 11:41:49;;;;;;;2.77;1.10;;;;;;;17.60;60.28;97529.38;5138661;27;44353;-86
2023/10/28 11:44:37;;;;;;;1.23;0.70;;;;;;;17.54;58.30;97539.94;5138865;27;38597;-88
2023/10/28 11:47:06;;;;;;;2.87;1.10;;;;;;;17.74;59.41;97588.59;5138540;27;41297;-88
2023/10/28 11:49:35;;;;;;;4.63;0.87;;;;;;;17.64;59.51;97587.97;5138430;27;43832;-88
2023/10/28 12:14:09;;;;;;;2.50;0.90;;;;;;;17.46;61.98;97554.16;5172910;27;41409;-87
2023/10/28 12:16:38;;;;;;;1.93;1.03;;;;;;;17.48;61.63;97552.16;5122116;27;42101;-88
2023/10/28 12:19:26;;;;;;;2.87;0.83;;;;;;;17.49;61.42;97555.66;5139257;27;44428;-88
2023/10/28 12:28:25;;;;;;;3.83;1.50;;;;;;;17.36;60.70;97579.44;5172565;27;42396;-87
2023/10/28 12:36:36;;;;;;;3.37;1.10;;;;;;;16.88;61.94;97562.41;5138673;27;40159;-87
2023/10/28 12:39:04;;;;;;;3.37;1.20;;;;;;;16.81;61.95;97564.91;5139070;27;41541;-86
2023/10/28 12:50:02;;;;;;;5.03;1.37;;;;;;;16.57;62.69;97564.84;5139835;27;44436;-88
2023/10/28 12:52:50;;;;;;;4.23;1.40;;;;;;;16.25;62.81;97525.56;5142712;27;42609;-87
2023/10/28 12:55:18;;;;;;;2.10;0.90;;;;;;;16.34;63.36;97561.13;5143789;27;41295;-87
2023/10/28 12:58:07;;;;;;;4.83;1.00;;;;;;;16.20;65.07;97556.41;5139440;27;39828;-86
2023/10/28 13:00:37;;;;;;;2.43;1.20;;;;;;;16.02;66.12;97546.72;5140624;27;41761;-86
2023/10/28 13:03:06;;;;;;;4.40;1.40;;;;;;;15.79;67.07;97516.25;5140059;27;43008;-86
2023/10/28 13:42:45;;;;;;;3.50;1.13;;;;;;;14.44;77.94;97541.66;5171720;27;40521;-87
2023/10/28 13:45:56;;;;;;;4.27;1.37;;;;;;;14.20;78.83;97518.25;5141163;27;38878;-86
2023/10/28 13:57:06;;;;;;;4.67;1.47;;;;;;;14.02;82.96;97552.00;5142443;27;42252;-86
2023/10/28 13:59:35;;;;;;;5.53;1.60;;;;;;;14.06;84.48;97563.19;5141068;27;43620;-85
2023/10/28 14:12:20;;;;;;;4.17;1.50;;;;;;;13.87;86.75;97578.25;5174362;27;43653;-89
2023/10/28 14:15:31;;;;;;;5.10;1.80;;;;;;;13.64;89.17;97548.53;5142015;27;42292;-87
2023/10/28 14:18:18;;;;;;;4.30;1.23;;;;;;;13.75;89.86;97598.06;5141505;27;40486;-91
2023/10/28 14:21:46;;;;;;;4.93;1.80;;;;;;;13.67;92.88;97595.31;5141596;27;42538;-88
2023/10/28 14:27:02;;;;;;;3.00;1.27;;;;;;;13.62;93.05;97613.50;5141649;27;40697;-89
2023/10/28 14:29:50;;;;;;;4.53;1.27;;;;;;;13.60;94.18;97611.00;5159100;27;39020;-88
2023/10/28 14:32:36;;;;;;;3.63;1.40;;;;;;;13.39;93.96;97577.63;5141546;27;42025;-87
2023/10/28 14:35:26;;;;;;;3.73;1.63;;;;;;;13.30;94.94;97582.81;5138389;27;42143;-88
2023/10/28 14:38:14;;;;;;;3.63;1.10;;;;;;;13.21;93.58;97578.38;5141494;27;42190;-85
2023/10/28 14:40:42;;;;;;;1.83;1.10;;;;;;;13.45;94.98;97627.56;5158435;27;38955;-87
2023/10/28 14:43:30;;;;;;;5.60;1.40;;;;;;;13.41;94.62;97631.50;5139869;27;41035;-86
2023/10/28 14:45:58;;;;;;;1.47;1.20;;;;;;;13.40;94.95;97625.34;5123801;27;43153;-88
2023/10/28 14:49:06;;;;;;;2.67;1.40;;;;;;;12.98;94.20;97558.38;5140162;27;42540;-87
2023/10/28 14:54:35;;;;;;;4.30;1.40;;;;;;;13.46;94.59;97621.28;5130109;27;41517;-86
2023/10/28 14:57:05;;;;;;;4.17;1.23;;;;;;;13.39;95.34;97622.81;5098906;27;42981;-88
2023/10/28 15:00:00;;;;;;;5.00;1.73;;;;;;;13.15;95.91;97594.88;5098735;27;42327;-88
2023/10/28 15:02:43;;;;;;;1.50;1.20;;;;;;;13.32;95.60;97632.34;5097801;27;40093;-87
2023/10/28 15:05:27;;;;;;;2.50;1.40;;;;;;;13.25;95.66;97619.63;5137975;27;42919;-87
2023/10/28 15:11:16;;;;;;;1.43;1.30;;;;;;;12.91;96.40;97573.22;5140044;27;41828;-87
2023/10/28 15:49:04;;;;;;;3.10;2.07;;;;;;;12.82;97.40;97595.31;5137390;27;40027;-86
2023/10/28 15:51:32;;;;;;;4.10;2.20;;;;;;;12.86;96.79;97594.88;5137853;27;41447;-88
2023/10/28 15:54:02;;;;;;;4.07;2.20;;;;;;;12.83;96.43;97578.41;5139112;27;44538;-87
2023/10/28 15:56:30;;;;;;;4.03;2.00;;;;;;;12.95;96.30;97598.53;5139222;27;41182;-87
2023/10/28 15:58:57;;;;;;;2.20;2.00;;;;;;;12.85;96.24;97581.75;5139352;27;41668;-86
2023/10/28 16:01:25;;;;;;;3.80;3.40;;;;;;;12.94;95.88;97602.16;5139268;27;40801;-88
2023/10/28 16:03:52;;;;;;;4.40;3.50;;;;;;;12.70;95.96;97553.94;5139271;27;41954;-87
2023/10/28 16:06:21;;;;;;;3.53;3.23;;;;;;;12.93;95.79;97590.69;5139209;27;43395;-88
2023/10/28 16:08:49;;;;;;;4.47;2.70;;;;;;;12.91;95.98;97586.50;5139523;27;41470;-86
2023/10/28 16:11:17;;;;;;;3.60;2.63;;;;;;;12.92;95.80;97593.47;5139044;27;40743;-87
2023/10/28 16:13:44;;;;;;;2.83;2.47;;;;;;;12.93;95.32;97584.53;5140087;27;42070;-87
2023/10/28 16:16:12;;;;;;;3.80;2.10;;;;;;;13.02;95.75;97596.13;5139934;27;43839;-87
2023/10/28 16:18:40;;;;;;;3.60;2.67;;;;;;;12.95;95.59;97587.91;5157988;27;40938;-87
2023/10/28 16:21:08;;;;;;;6.27;3.00;;;;;;;12.92;95.33;97580.19;5139858;27;40945;-87
2023/10/28 16:23:39;;;;;;;4.17;2.47;;;;;;;13.03;96.00;97590.66;5140123;27;41835;-88
2023/10/28 16:26:06;;;;;;;4.97;3.00;;;;;;;12.94;95.76;97576.44;5138246;27;43038;-86
2023/10/28 16:28:34;;;;;;;4.23;3.10;;;;;;;12.90;95.91;97575.03;5138565;27;40249;-85
2023/10/28 16:31:06;;;;;;;3.50;2.63;;;;;;;12.92;96.03;97567.75;5138494;27;40747;-86
2023/10/28 16:33:34;;;;;;;4.37;2.50;;;;;;;13.02;96.57;97585.50;5153456;27;43996;-84
2023/10/28 16:36:01;;;;;;;4.17;2.10;;;;;;;12.99;96.67;97583.94;5138645;27;41027;-88
2023/10/28 16:38:28;;;;;;;3.23;1.80;;;;;;;12.87;96.50;97564.66;5156235;27;38453;-85
2023/10/28 16:40:57;;;;;;;3.07;1.77;;;;;;;12.90;96.63;97568.88;5139102;27;40354;-87
2023/10/28 16:43:25;;;;;;;4.13;1.90;;;;;;;12.90;96.07;97574.19;5175357;27;43668;-83
2023/10/28 16:45:58;;;;;;;2.73;1.60;;;;;;;12.91;96.19;97575.88;5169183;27;41432;-86
2023/10/28 16:48:25;;;;;;;3.50;2.10;;;;;;;12.99;96.45;97599.91;5156265;27;38621;-88
2023/10/28 16:50:54;;;;;;;2.60;1.90;;;;;;;12.93;96.73;97584.53;5138438;27;40636;-87
2023/10/28 16:53:24;;;;;;;3.57;1.93;;;;;;;12.85;97.28;97579.94;5139030;27;42734;-85
2023/10/28 16:56:03;;;;;;;3.27;1.60;;;;;;;12.92;97.09;97598.78;5138327;27;42104;-85
2023/10/28 16:58:31;;;;;;;2.90;1.80;;;;;;;12.84;97.43;97585.38;5138484;27;39337;-85
2023/10/28 17:00:58;;;;;;;2.90;1.57;;;;;;;12.79;97.48;97577.00;5155724;27;43050;-83
2023/10/28 17:03:26;;;;;;;1.80;1.40;;;;;;;12.93;97.67;97606.63;5140377;27;44654;-88
2023/10/28 17:05:53;;;;;;;4.90;2.03;;;;;;;12.93;97.44;97608.44;5142097;27;42603;-86
2023/10/28 17:08:20;;;;;;;2.70;1.67;;;;;;;12.84;97.94;97586.22;5142578;27;40069;-87
2023/10/28 17:10:48;;;;;;;1.90;1.30;;;;;;;12.83;97.28;97592.53;5142201;27;43091;-85
2023/10/28 17:13:17;;;;;;;2.53;1.43;;;;;;;12.94;97.27;97607.47;5160576;27;42935;-86
2023/10/28 17:15:45;;;;;;;1.43;1.33;;;;;;;12.86;97.57;97591.38;5143151;27;41438;-83
2023/10/28 17:18:13;;;;;;;2.77;1.60;;;;;;;12.90;97.74;97601.59;5160965;27;39925;-85
2023/10/28 17:20:41;;;;;;;3.00;1.40;;;;;;;12.89;98.07;97610.53;5142649;27;40639;-83
2023/10/28 17:23:09;;;;;;;3.33;1.60;;;;;;;12.87;98.05;97611.66;5160353;27;43145;-83
2023/10/28 17:25:36;;;;;;;3.03;1.37;;;;;;;12.83;98.42;97605.81;5159958;27;42403;-84
2023/10/28 17:28:04;;;;;;;1.60;1.50;;;;;;;12.79;98.75;97592.94;5160196;27;39344;-82
2023/10/28 17:30:34;;;;;;;1.80;1.40;;;;;;;12.75;99.74;97580.91;5125610;27;43412;-84
2023/10/28 17:33:02;;;;;;;2.47;1.43;;;;;;;12.86;99.16;97607.31;5142955;27;43292;-85
2023/10/28 17:35:29;;;;;;;2.33;1.70;;;;;;;12.87;99.49;97606.34;5142346;27;42582;-85
2023/10/28 17:37:56;;;;;;;1.73;1.43;;;;;;;12.78;99.45;97593.91;5126243;27;40316;-83
2023/10/28 17:40:24;;;;;;;1.80;1.30;;;;;;;12.78;99.18;97592.09;5178133;27;41546;-86
2023/10/28 17:42:52;;;;;;;2.97;1.33;;;;;;;12.86;99.78;97602.00;5157852;27;41639;-87
2023/10/28 17:45:19;;;;;;;3.77;1.73;;;;;;;12.87;99.89;97611.66;5158689;27;42317;-84
2023/10/28 17:47:48;;;;;;;1.77;1.53;;;;;;;12.88;99.45;97600.03;5141673;27;39120;-86
2023/10/28 17:50:16;;;;;;;2.13;1.60;;;;;;;12.80;99.34;97597.25;5141069;27;42615;-86
2023/10/28 17:52:44;;;;;;;4.10;1.40;;;;;;;12.91;98.97;97618.38;5158969;27;43360;-87
2023/10/28 17:55:11;;;;;;;2.83;1.77;;;;;;;12.92;98.98;97620.06;5140714;27;42148;-84
2023/10/28 17:57:39;;;;;;;2.57;1.60;;;;;;;12.85;98.96;97608.31;5141031;27;40635;-84
2023/10/28 18:00:08;;;;;;;2.37;1.40;;;;;;;12.69;98.68;97586.78;5158552;27;41920;-86
2023/10/28 18:02:38;;;;;;;5.80;2.13;;;;;;;12.79;99.61;97608.88;5158470;27;42684;-84
2023/10/28 18:05:07;;;;;;;2.20;1.50;;;;;;;12.84;99.98;97617.28;5158151;27;41910;-87
2023/10/28 18:07:38;;;;;;;3.10;1.63;;;;;;;12.81;100.00;97629.00;5158709;27;40760;-87
2023/10/28 18:10:06;;;;;;;2.87;1.80;;;;;;;12.80;100.00;97627.31;5140892;27;40828;-83
2023/10/28 18:12:33;;;;;;;3.30;1.60;;;;;;;12.70;100.00;97615.03;5177354;27;42507;-86
2023/10/28 18:15:01;;;;;;;3.50;1.63;;;;;;;12.67;100.00;97600.19;5141190;27;41410;-87
2023/10/28 18:17:28;;;;;;;4.27;1.70;;;;;;;12.70;100.00;97593.78;5142086;27;40306;-86
2023/10/28 18:19:56;;;;;;;3.40;1.30;;;;;;;12.72;100.00;97591.81;5159185;27;40602;-86
2023/10/28 18:22:25;;;;;;;3.50;1.73;;;;;;;12.79;100.00;97603.56;5124895;27;43192;-83
2023/10/28 18:24:53;;;;;;;2.30;1.60;;;;;;;12.68;100.00;97577.13;5158745;27;43748;-85
2023/10/28 18:27:21;;;;;;;4.47;1.80;;;;;;;12.74;100.00;97600.47;5141837;27;39331;-86
2023/10/28 18:29:48;;;;;;;3.33;2.00;;;;;;;12.63;99.87;97584.69;5141689;27;42613;-83
2023/10/28 18:32:16;;;;;;;2.93;1.77;;;;;;;12.65;100.00;97603.97;5159117;27;43596;-84
2023/10/28 18:34:47;;;;;;;3.17;1.70;;;;;;;12.53;99.88;97593.47;5141656;27;42168;-86
2023/10/28 18:37:15;;;;;;;3.63;1.63;;;;;;;12.49;99.89;97593.88;5141923;27;38933;-85
2023/10/28 18:39:45;;;;;;;4.17;1.77;;;;;;;12.56;99.69;97616.28;5158786;27;40637;-83
2023/10/28 18:42:12;;;;;;;3.37;1.90;;;;;;;12.43;99.48;97587.34;5157195;27;43030;-86
2023/10/28 18:44:40;;;;;;;4.50;1.63;;;;;;;12.51;99.81;97606.06;5157222;27;41797;-85
2023/10/28 18:47:08;;;;;;;3.87;1.60;;;;;;;12.44;99.95;97599.63;5140051;27;41420;-86
2023/10/28 18:49:36;;;;;;;5.17;1.60;;;;;;;12.48;99.61;97601.03;5157517;27;40617;-84
2023/10/28 18:52:04;;;;;;;2.67;1.67;;;;;;;12.54;99.75;97611.09;5140050;27;43597;-85
2023/10/28 18:54:31;;;;;;;4.43;1.67;;;;;;;12.27;99.53;97567.59;5157407;27;42986;-85
2023/10/28 18:57:00;;;;;;;3.53;1.40;;;;;;;12.55;99.44;97607.47;5140183;27;40483;-86
2023/10/28 18:59:30;;;;;;;3.90;2.00;;;;;;;12.57;99.36;97605.53;5174741;27;42065;-84
2023/10/28 19:01:57;;;;;;;5.97;1.80;;;;;;;12.44;99.73;97581.03;5140159;27;41687;-83
